Terminal Aerodrome Forecast
Issued by NWS

Home | Current Version | Previous Version | Text Only | Print | Product List | Glossary Off
Versions: 1 2 3 4 5 6 7 8 9 10 11 12 13 14 15 16 17 18

000
FTUS41 KCLE 180700 AAA
TAFFDY
TAF AMD
KFDY 180726Z 1807/1906 31016G24KT P6SM OVC020
      TEMPO 1807/1811 SCT020 OVC035
     FM181400 32014G22KT P6SM OVC025
     FM182200 32012G20KT P6SM SCT025 OVC050
      TEMPO 1822/1902 BKN025
     FM190200 32006KT P6SM SCT050 BKN100=

USA.gov is the U.S. government's official web portal to all federal, state and local government web resources and services.